Balcones Heights, Texas
Current Conditions -  °F | °C
As of 2:51 PM on Wednesday 26 Nov 2014 (Local Time) from KSAT Reporting Station
Clear Clear  
Wind Chill: 73°   Ceiling: Unl
Heat Index: 73°   Visibility: 10mi
Dew Point: 33°   Wind: 10mph
Humidity: 23%   Direction: 240°WSW
Pressure: 30.18"   Gusts: NA
Location:  29.4697°N, 98.5294°W
Report Text: KSAT 262051Z 24009KT 10SM CLR 23/01 A3018 RMK AO2 SLP207 T02280006 56016
Loading
Personal Weather Stations






























Interactive Weather Map New forecast layout! Learn more

10-Day Weather Forecast

Advertisements
Track Severe Weather on mobile